sensor_id;sensor_type;location;lat;lon;timestamp;P1;durP1;ratioP1;P2;durP2;ratioP2
54460;SDS011;69977;49.414;11.010;2023-05-29T00:00:56;4.53;;;3.77;;
54460;SDS011;69977;49.414;11.010;2023-05-29T00:03:22;3.93;;;3.63;;
54460;SDS011;69977;49.414;11.010;2023-05-29T00:05:48;3.73;;;3.43;;
54460;SDS011;69977;49.414;11.010;2023-05-29T00:08:14;4.63;;;3.50;;
54460;SDS011;69977;49.414;11.010;2023-05-29T00:10:40;5.37;;;3.53;;
54460;SDS011;69977;49.414;11.010;2023-05-29T00:13:06;4.00;;;3.60;;
54460;SDS011;69977;49.414;11.010;2023-05-29T00:15:32;5.93;;;4.07;;
54460;SDS011;69977;49.414;11.010;2023-05-29T00:17:58;4.70;;;3.03;;
54460;SDS011;69977;49.414;11.010;2023-05-29T00:20:23;5.00;;;3.60;;
54460;SDS011;69977;49.414;11.010;2023-05-29T00:22:49;5.20;;;3.53;;
54460;SDS011;69977;49.414;11.010;2023-05-29T00:25:15;4.20;;;3.37;;
54460;SDS011;69977;49.414;11.010;2023-05-29T00:27:41;7.13;;;3.80;;
54460;SDS011;69977;49.414;11.010;2023-05-29T00:30:07;3.73;;;3.40;;
54460;SDS011;69977;49.414;11.010;2023-05-29T00:32:33;3.80;;;3.30;;
54460;SDS011;69977;49.414;11.010;2023-05-29T00:34:59;5.10;;;3.43;;
54460;SDS011;69977;49.414;11.010;2023-05-29T00:37:25;3.67;;;3.27;;
54460;SDS011;69977;49.414;11.010;2023-05-29T00:39:51;4.20;;;3.20;;
54460;SDS011;69977;49.414;11.010;2023-05-29T00:42:17;9.67;;;3.93;;
54460;SDS011;69977;49.414;11.010;2023-05-29T00:44:43;4.93;;;3.30;;
54460;SDS011;69977;49.414;11.010;2023-05-29T00:47:08;5.87;;;3.40;;
54460;SDS011;69977;49.414;11.010;2023-05-29T00:49:35;6.50;;;3.60;;
54460;SDS011;69977;49.414;11.010;2023-05-29T00:52:02;4.27;;;3.10;;
54460;SDS011;69977;49.414;11.010;2023-05-29T00:54:31;3.70;;;3.17;;
54460;SDS011;69977;49.414;11.010;2023-05-29T00:56:57;4.03;;;3.63;;
54460;SDS011;69977;49.414;11.010;2023-05-29T00:59:27;7.40;;;3.60;;
54460;SDS011;69977;49.414;11.010;2023-05-29T01:01:55;3.50;;;3.20;;
54460;SDS011;69977;49.414;11.010;2023-05-29T01:04:23;5.33;;;3.33;;
54460;SDS011;69977;49.414;11.010;2023-05-29T01:06:50;5.20;;;3.53;;
54460;SDS011;69977;49.414;11.010;2023-05-29T01:09:16;5.47;;;3.73;;
54460;SDS011;69977;49.414;11.010;2023-05-29T01:22:58;5.73;;;3.47;;
54460;SDS011;69977;49.414;11.010;2023-05-29T01:28:18;5.77;;;3.80;;
54460;SDS011;69977;49.414;11.010;2023-05-29T01:30:47;4.97;;;3.30;;
54460;SDS011;69977;49.414;11.010;2023-05-29T01:33:14;4.13;;;3.57;;
54460;SDS011;69977;49.414;11.010;2023-05-29T01:35:41;4.63;;;4.00;;
54460;SDS011;69977;49.414;11.010;2023-05-29T01:38:06;4.93;;;3.83;;
54460;SDS011;69977;49.414;11.010;2023-05-29T01:40:32;4.13;;;3.20;;
54460;SDS011;69977;49.414;11.010;2023-05-29T01:42:59;4.40;;;3.37;;
54460;SDS011;69977;49.414;11.010;2023-05-29T01:45:25;6.23;;;3.37;;
54460;SDS011;69977;49.414;11.010;2023-05-29T01:47:51;4.03;;;3.53;;
54460;SDS011;69977;49.414;11.010;2023-05-29T01:50:17;5.20;;;3.60;;
54460;SDS011;69977;49.414;11.010;2023-05-29T01:52:44;3.63;;;3.33;;
54460;SDS011;69977;49.414;11.010;2023-05-29T01:55:10;4.97;;;3.43;;
54460;SDS011;69977;49.414;11.010;2023-05-29T01:57:36;4.87;;;3.27;;
54460;SDS011;69977;49.414;11.010;2023-05-29T02:00:03;7.03;;;3.30;;
54460;SDS011;69977;49.414;11.010;2023-05-29T02:02:39;4.50;;;3.20;;
54460;SDS011;69977;49.414;11.010;2023-05-29T02:05:06;6.20;;;3.23;;
54460;SDS011;69977;49.414;11.010;2023-05-29T02:07:33;3.93;;;3.53;;
54460;SDS011;69977;49.414;11.010;2023-05-29T02:10:02;3.90;;;3.50;;
54460;SDS011;69977;49.414;11.010;2023-05-29T02:12:29;6.33;;;3.47;;
54460;SDS011;69977;49.414;11.010;2023-05-29T02:14:55;3.70;;;3.40;;
54460;SDS011;69977;49.414;11.010;2023-05-29T02:17:22;3.53;;;3.20;;
54460;SDS011;69977;49.414;11.010;2023-05-29T02:19:48;4.00;;;3.20;;
54460;SDS011;69977;49.414;11.010;2023-05-29T02:22:14;5.87;;;3.30;;
54460;SDS011;69977;49.414;11.010;2023-05-29T02:24:40;4.70;;;3.57;;
54460;SDS011;69977;49.414;11.010;2023-05-29T02:27:06;3.70;;;3.10;;
54460;SDS011;69977;49.414;11.010;2023-05-29T02:29:33;4.73;;;3.17;;
54460;SDS011;69977;49.414;11.010;2023-05-29T02:31:59;5.07;;;3.57;;
54460;SDS011;69977;49.414;11.010;2023-05-29T02:34:24;3.80;;;3.43;;
54460;SDS011;69977;49.414;11.010;2023-05-29T02:36:50;4.83;;;3.60;;
54460;SDS011;69977;49.414;11.010;2023-05-29T02:39:18;4.20;;;3.40;;
54460;SDS011;69977;49.414;11.010;2023-05-29T02:41:44;5.17;;;3.87;;
54460;SDS011;69977;49.414;11.010;2023-05-29T02:44:10;3.50;;;3.03;;
54460;SDS011;69977;49.414;11.010;2023-05-29T02:46:36;3.87;;;3.47;;
54460;SDS011;69977;49.414;11.010;2023-05-29T02:49:01;4.03;;;3.40;;
54460;SDS011;69977;49.414;11.010;2023-05-29T02:51:27;3.90;;;3.33;;
54460;SDS011;69977;49.414;11.010;2023-05-29T02:53:53;4.50;;;3.60;;
54460;SDS011;69977;49.414;11.010;2023-05-29T02:56:19;4.67;;;3.37;;
54460;SDS011;69977;49.414;11.010;2023-05-29T02:58:49;4.17;;;3.50;;
54460;SDS011;69977;49.414;11.010;2023-05-29T03:01:16;4.27;;;3.20;;
54460;SDS011;69977;49.414;11.010;2023-05-29T03:03:42;6.23;;;4.33;;
54460;SDS011;69977;49.414;11.010;2023-05-29T03:06:08;4.00;;;3.47;;
54460;SDS011;69977;49.414;11.010;2023-05-29T03:08:35;4.07;;;3.37;;
54460;SDS011;69977;49.414;11.010;2023-05-29T03:11:08;4.50;;;3.80;;
54460;SDS011;69977;49.414;11.010;2023-05-29T03:13:36;4.67;;;3.73;;
54460;SDS011;69977;49.414;11.010;2023-05-29T03:16:05;4.20;;;3.20;;
54460;SDS011;69977;49.414;11.010;2023-05-29T03:18:33;3.50;;;3.20;;
54460;SDS011;69977;49.414;11.010;2023-05-29T03:21:00;3.97;;;3.40;;
54460;SDS011;69977;49.414;11.010;2023-05-29T03:23:27;3.53;;;3.23;;
54460;SDS011;69977;49.414;11.010;2023-05-29T03:25:53;5.10;;;3.20;;
54460;SDS011;69977;49.414;11.010;2023-05-29T03:28:19;4.47;;;3.97;;
54460;SDS011;69977;49.414;11.010;2023-05-29T03:30:46;5.70;;;4.00;;
54460;SDS011;69977;49.414;11.010;2023-05-29T03:33:15;3.80;;;3.50;;
54460;SDS011;69977;49.414;11.010;2023-05-29T03:36:03;3.17;;;2.87;;
54460;SDS011;69977;49.414;11.010;2023-05-29T03:38:29;3.70;;;3.40;;
54460;SDS011;69977;49.414;11.010;2023-05-29T03:40:57;3.77;;;3.37;;
54460;SDS011;69977;49.414;11.010;2023-05-29T03:43:23;3.87;;;3.47;;
54460;SDS011;69977;49.414;11.010;2023-05-29T03:45:49;4.87;;;3.50;;
54460;SDS011;69977;49.414;11.010;2023-05-29T03:48:15;4.90;;;3.97;;
54460;SDS011;69977;49.414;11.010;2023-05-29T03:50:42;3.77;;;3.47;;
54460;SDS011;69977;49.414;11.010;2023-05-29T03:53:09;4.00;;;3.57;;
54460;SDS011;69977;49.414;11.010;2023-05-29T03:55:36;4.43;;;3.80;;
54460;SDS011;69977;49.414;11.010;2023-05-29T03:58:02;5.80;;;3.50;;
54460;SDS011;69977;49.414;11.010;2023-05-29T04:00:28;4.33;;;3.37;;
54460;SDS011;69977;49.414;11.010;2023-05-29T04:02:57;5.67;;;4.00;;
54460;SDS011;69977;49.414;11.010;2023-05-29T04:05:23;4.30;;;3.67;;
54460;SDS011;69977;49.414;11.010;2023-05-29T04:07:49;3.90;;;3.30;;
54460;SDS011;69977;49.414;11.010;2023-05-29T04:10:14;6.23;;;4.20;;
54460;SDS011;69977;49.414;11.010;2023-05-29T04:12:41;4.10;;;3.70;;
54460;SDS011;69977;49.414;11.010;2023-05-29T04:15:07;4.23;;;3.80;;
54460;SDS011;69977;49.414;11.010;2023-05-29T04:17:34;4.30;;;3.90;;
54460;SDS011;69977;49.414;11.010;2023-05-29T04:19:59;4.57;;;3.83;;
54460;SDS011;69977;49.414;11.010;2023-05-29T04:22:31;4.70;;;3.87;;
54460;SDS011;69977;49.414;11.010;2023-05-29T04:24:56;4.00;;;3.60;;
54460;SDS011;69977;49.414;11.010;2023-05-29T04:27:22;4.00;;;3.60;;
54460;SDS011;69977;49.414;11.010;2023-05-29T04:29:48;6.80;;;3.70;;
54460;SDS011;69977;49.414;11.010;2023-05-29T04:32:14;4.47;;;3.37;;
54460;SDS011;69977;49.414;11.010;2023-05-29T04:34:40;6.07;;;3.83;;
54460;SDS011;69977;49.414;11.010;2023-05-29T04:37:10;5.77;;;4.33;;
54460;SDS011;69977;49.414;11.010;2023-05-29T04:39:37;7.10;;;4.43;;
54460;SDS011;69977;49.414;11.010;2023-05-29T04:42:04;4.20;;;3.80;;
54460;SDS011;69977;49.414;11.010;2023-05-29T04:44:30;4.63;;;4.03;;
54460;SDS011;69977;49.414;11.010;2023-05-29T04:46:57;5.07;;;3.93;;
54460;SDS011;69977;49.414;11.010;2023-05-29T04:49:23;4.53;;;4.13;;
54460;SDS011;69977;49.414;11.010;2023-05-29T04:51:49;4.57;;;4.03;;
54460;SDS011;69977;49.414;11.010;2023-05-29T04:54:17;4.23;;;3.80;;
54460;SDS011;69977;49.414;11.010;2023-05-29T04:56:45;4.87;;;3.60;;
54460;SDS011;69977;49.414;11.010;2023-05-29T04:59:13;4.53;;;3.93;;
54460;SDS011;69977;49.414;11.010;2023-05-29T05:01:39;4.63;;;3.80;;
54460;SDS011;69977;49.414;11.010;2023-05-29T05:04:08;4.70;;;4.20;;
54460;SDS011;69977;49.414;11.010;2023-05-29T05:06:35;4.90;;;4.33;;
54460;SDS011;69977;49.414;11.010;2023-05-29T05:09:02;5.17;;;3.73;;
54460;SDS011;69977;49.414;11.010;2023-05-29T05:11:29;4.90;;;3.50;;
54460;SDS011;69977;49.414;11.010;2023-05-29T05:13:55;4.37;;;3.77;;
54460;SDS011;69977;49.414;11.010;2023-05-29T05:16:21;4.70;;;3.60;;
54460;SDS011;69977;49.414;11.010;2023-05-29T05:18:46;7.43;;;3.73;;
54460;SDS011;69977;49.414;11.010;2023-05-29T05:21:12;5.67;;;3.90;;
54460;SDS011;69977;49.414;11.010;2023-05-29T05:23:38;5.50;;;4.20;;
54460;SDS011;69977;49.414;11.010;2023-05-29T05:26:08;4.53;;;3.40;;
54460;SDS011;69977;49.414;11.010;2023-05-29T05:28:34;6.27;;;3.90;;
54460;SDS011;69977;49.414;11.010;2023-05-29T05:31:01;3.27;;;2.97;;
54460;SDS011;69977;49.414;11.010;2023-05-29T05:33:28;5.53;;;3.63;;
54460;SDS011;69977;49.414;11.010;2023-05-29T05:35:53;4.67;;;3.43;;
54460;SDS011;69977;49.414;11.010;2023-05-29T05:38:19;6.00;;;3.80;;
54460;SDS011;69977;49.414;11.010;2023-05-29T05:40:46;4.20;;;3.23;;
54460;SDS011;69977;49.414;11.010;2023-05-29T05:43:18;4.80;;;3.33;;
54460;SDS011;69977;49.414;11.010;2023-05-29T05:46:01;3.40;;;2.97;;
54460;SDS011;69977;49.414;11.010;2023-05-29T05:48:28;3.10;;;2.83;;
54460;SDS011;69977;49.414;11.010;2023-05-29T05:50:55;3.87;;;3.10;;
54460;SDS011;69977;49.414;11.010;2023-05-29T05:53:20;4.40;;;3.50;;
54460;SDS011;69977;49.414;11.010;2023-05-29T05:55:46;3.53;;;3.07;;
54460;SDS011;69977;49.414;11.010;2023-05-29T05:58:12;6.63;;;3.30;;
54460;SDS011;69977;49.414;11.010;2023-05-29T06:00:39;3.17;;;2.80;;
54460;SDS011;69977;49.414;11.010;2023-05-29T06:03:06;3.40;;;3.10;;
54460;SDS011;69977;49.414;11.010;2023-05-29T06:05:50;2.90;;;2.70;;
54460;SDS011;69977;49.414;11.010;2023-05-29T06:08:17;2.83;;;2.63;;
54460;SDS011;69977;49.414;11.010;2023-05-29T06:10:43;4.70;;;3.03;;
54460;SDS011;69977;49.414;11.010;2023-05-29T06:13:09;3.80;;;3.10;;
54460;SDS011;69977;49.414;11.010;2023-05-29T06:15:43;4.03;;;3.10;;
54460;SDS011;69977;49.414;11.010;2023-05-29T06:18:09;3.30;;;2.93;;
54460;SDS011;69977;49.414;11.010;2023-05-29T06:20:36;4.47;;;3.00;;
54460;SDS011;69977;49.414;11.010;2023-05-29T06:23:02;8.07;;;3.27;;
54460;SDS011;69977;49.414;11.010;2023-05-29T06:25:29;3.40;;;2.80;;
54460;SDS011;69977;49.414;11.010;2023-05-29T06:28:02;4.13;;;2.83;;
54460;SDS011;69977;49.414;11.010;2023-05-29T06:30:28;4.73;;;3.37;;
54460;SDS011;69977;49.414;11.010;2023-05-29T06:32:54;4.93;;;2.90;;
54460;SDS011;69977;49.414;11.010;2023-05-29T06:35:25;5.07;;;3.07;;
54460;SDS011;69977;49.414;11.010;2023-05-29T06:37:51;4.50;;;3.07;;
54460;SDS011;69977;49.414;11.010;2023-05-29T06:40:17;3.37;;;2.80;;
54460;SDS011;69977;49.414;11.010;2023-05-29T06:42:43;3.67;;;2.73;;
54460;SDS011;69977;49.414;11.010;2023-05-29T06:45:13;3.03;;;2.77;;
54460;SDS011;69977;49.414;11.010;2023-05-29T06:47:39;3.90;;;2.90;;
54460;SDS011;69977;49.414;11.010;2023-05-29T06:50:08;4.53;;;2.87;;
54460;SDS011;69977;49.414;11.010;2023-05-29T06:52:36;3.53;;;2.60;;
54460;SDS011;69977;49.414;11.010;2023-05-29T06:55:20;2.60;;;2.40;;
54460;SDS011;69977;49.414;11.010;2023-05-29T06:57:46;2.93;;;2.67;;
54460;SDS011;69977;49.414;11.010;2023-05-29T07:00:12;2.83;;;2.63;;
54460;SDS011;69977;49.414;11.010;2023-05-29T07:02:45;3.93;;;2.93;;
54460;SDS011;69977;49.414;11.010;2023-05-29T07:05:11;3.17;;;2.67;;
54460;SDS011;69977;49.414;11.010;2023-05-29T07:07:37;4.47;;;2.60;;
54460;SDS011;69977;49.414;11.010;2023-05-29T07:10:03;4.73;;;2.60;;
54460;SDS011;69977;49.414;11.010;2023-05-29T07:12:29;3.33;;;2.67;;
54460;SDS011;69977;49.414;11.010;2023-05-29T07:14:55;3.60;;;2.10;;
54460;SDS011;69977;49.414;11.010;2023-05-29T07:17:21;3.00;;;2.70;;
54460;SDS011;69977;49.414;11.010;2023-05-29T07:19:55;3.17;;;2.37;;
54460;SDS011;69977;49.414;11.010;2023-05-29T07:22:21;3.07;;;2.70;;
54460;SDS011;69977;49.414;11.010;2023-05-29T07:24:47;3.30;;;2.50;;
54460;SDS011;69977;49.414;11.010;2023-05-29T07:27:12;4.13;;;2.90;;
54460;SDS011;69977;49.414;11.010;2023-05-29T07:29:38;4.13;;;2.80;;
54460;SDS011;69977;49.414;11.010;2023-05-29T07:32:04;3.83;;;2.47;;
54460;SDS011;69977;49.414;11.010;2023-05-29T07:34:30;5.00;;;2.87;;
54460;SDS011;69977;49.414;11.010;2023-05-29T07:39:31;2.63;;;2.43;;
54460;SDS011;69977;49.414;11.010;2023-05-29T07:42:02;5.20;;;2.90;;
54460;SDS011;69977;49.414;11.010;2023-05-29T07:44:28;3.37;;;2.13;;
54460;SDS011;69977;49.414;11.010;2023-05-29T07:46:54;2.53;;;2.33;;
54460;SDS011;69977;49.414;11.010;2023-05-29T07:49:32;3.03;;;2.60;;
54460;SDS011;69977;49.414;11.010;2023-05-29T07:51:58;3.03;;;2.53;;
54460;SDS011;69977;49.414;11.010;2023-05-29T07:54:24;3.63;;;2.50;;
54460;SDS011;69977;49.414;11.010;2023-05-29T07:56:51;9.63;;;2.80;;
54460;SDS011;69977;49.414;11.010;2023-05-29T07:59:17;3.13;;;2.50;;
54460;SDS011;69977;49.414;11.010;2023-05-29T08:01:43;3.20;;;2.57;;
54460;SDS011;69977;49.414;11.010;2023-05-29T08:04:24;2.83;;;2.37;;
54460;SDS011;69977;49.414;11.010;2023-05-29T08:06:50;3.40;;;2.37;;
54460;SDS011;69977;49.414;11.010;2023-05-29T08:09:17;4.07;;;2.47;;
54460;SDS011;69977;49.414;11.010;2023-05-29T08:11:43;2.60;;;2.40;;
54460;SDS011;69977;49.414;11.010;2023-05-29T08:14:11;3.43;;;2.50;;
54460;SDS011;69977;49.414;11.010;2023-05-29T08:16:38;3.03;;;2.47;;
54460;SDS011;69977;49.414;11.010;2023-05-29T08:19:04;2.30;;;2.10;;
54460;SDS011;69977;49.414;11.010;2023-05-29T08:21:30;4.17;;;2.40;;
54460;SDS011;69977;49.414;11.010;2023-05-29T08:23:57;2.53;;;2.30;;
54460;SDS011;69977;49.414;11.010;2023-05-29T08:26:23;2.53;;;2.23;;
54460;SDS011;69977;49.414;11.010;2023-05-29T08:28:49;3.13;;;2.47;;
54460;SDS011;69977;49.414;11.010;2023-05-29T08:31:15;3.17;;;2.50;;
54460;SDS011;69977;49.414;11.010;2023-05-29T08:33:41;2.33;;;2.13;;
54460;SDS011;69977;49.414;11.010;2023-05-29T08:36:07;2.47;;;2.00;;
54460;SDS011;69977;49.414;11.010;2023-05-29T08:38:34;2.57;;;2.37;;
54460;SDS011;69977;49.414;11.010;2023-05-29T08:41:00;3.23;;;2.40;;
54460;SDS011;69977;49.414;11.010;2023-05-29T08:43:29;3.67;;;2.30;;
54460;SDS011;69977;49.414;11.010;2023-05-29T08:45:59;3.60;;;2.30;;
54460;SDS011;69977;49.414;11.010;2023-05-29T08:48:26;2.83;;;2.10;;
54460;SDS011;69977;49.414;11.010;2023-05-29T08:50:54;2.07;;;1.90;;
54460;SDS011;69977;49.414;11.010;2023-05-29T08:53:22;4.20;;;2.67;;
54460;SDS011;69977;49.414;11.010;2023-05-29T08:55:49;2.90;;;2.30;;
54460;SDS011;69977;49.414;11.010;2023-05-29T08:58:18;2.90;;;2.33;;
54460;SDS011;69977;49.414;11.010;2023-05-29T09:00:49;3.23;;;2.13;;
54460;SDS011;69977;49.414;11.010;2023-05-29T09:03:16;2.43;;;2.20;;
54460;SDS011;69977;49.414;11.010;2023-05-29T09:05:42;2.80;;;2.33;;
54460;SDS011;69977;49.414;11.010;2023-05-29T09:08:10;2.57;;;2.27;;
54460;SDS011;69977;49.414;11.010;2023-05-29T09:10:40;3.20;;;2.47;;
54460;SDS011;69977;49.414;11.010;2023-05-29T09:13:08;3.67;;;2.33;;
54460;SDS011;69977;49.414;11.010;2023-05-29T09:15:35;2.78;;;2.25;;
54460;SDS011;69977;49.414;11.010;2023-05-29T09:18:03;4.03;;;2.70;;
54460;SDS011;69977;49.414;11.010;2023-05-29T09:20:29;3.73;;;2.30;;
54460;SDS011;69977;49.414;11.010;2023-05-29T09:22:59;2.55;;;2.33;;
54460;SDS011;69977;49.414;11.010;2023-05-29T09:25:27;3.90;;;2.63;;
54460;SDS011;69977;49.414;11.010;2023-05-29T09:27:56;15.20;;;3.30;;
54460;SDS011;69977;49.414;11.010;2023-05-29T09:30:37;4.47;;;2.80;;
54460;SDS011;69977;49.414;11.010;2023-05-29T09:33:08;2.70;;;2.50;;
54460;SDS011;69977;49.414;11.010;2023-05-29T09:38:05;4.90;;;2.50;;
54460;SDS011;69977;49.414;11.010;2023-05-29T09:40:37;4.67;;;2.47;;
54460;SDS011;69977;49.414;11.010;2023-05-29T09:43:14;7.17;;;4.77;;
54460;SDS011;69977;49.414;11.010;2023-05-29T09:45:46;3.28;;;3.05;;
54460;SDS011;69977;49.414;11.010;2023-05-29T09:48:13;5.68;;;2.65;;
54460;SDS011;69977;49.414;11.010;2023-05-29T09:50:41;2.53;;;2.33;;
54460;SDS011;69977;49.414;11.010;2023-05-29T09:53:23;3.05;;;2.65;;
54460;SDS011;69977;49.414;11.010;2023-05-29T09:55:50;3.42;;;2.40;;
54460;SDS011;69977;49.414;11.010;2023-05-29T09:58:18;3.10;;;2.55;;
54460;SDS011;69977;49.414;11.010;2023-05-29T10:00:44;2.40;;;2.20;;
54460;SDS011;69977;49.414;11.010;2023-05-29T10:03:11;2.40;;;2.30;;
54460;SDS011;69977;49.414;11.010;2023-05-29T10:05:40;4.53;;;2.40;;
54460;SDS011;69977;49.414;11.010;2023-05-29T10:08:08;5.28;;;2.30;;
54460;SDS011;69977;49.414;11.010;2023-05-29T10:10:38;3.92;;;2.35;;
54460;SDS011;69977;49.414;11.010;2023-05-29T10:13:11;3.50;;;2.78;;
54460;SDS011;69977;49.414;11.010;2023-05-29T10:15:39;2.38;;;2.17;;
54460;SDS011;69977;49.414;11.010;2023-05-29T10:18:16;2.40;;;2.20;;
54460;SDS011;69977;49.414;11.010;2023-05-29T10:20:49;2.83;;;2.35;;
54460;SDS011;69977;49.414;11.010;2023-05-29T10:23:17;2.50;;;2.30;;
54460;SDS011;69977;49.414;11.010;2023-05-29T10:25:48;2.50;;;2.30;;
54460;SDS011;69977;49.414;11.010;2023-05-29T10:28:18;4.22;;;2.75;;
54460;SDS011;69977;49.414;11.010;2023-05-29T10:30:53;4.72;;;2.72;;
54460;SDS011;69977;49.414;11.010;2023-05-29T10:33:48;4.00;;;2.42;;
54460;SDS011;69977;49.414;11.010;2023-05-29T10:36:43;2.70;;;2.40;;
54460;SDS011;69977;49.414;11.010;2023-05-29T10:39:15;2.92;;;2.25;;
54460;SDS011;69977;49.414;11.010;2023-05-29T10:41:41;2.83;;;2.63;;
54460;SDS011;69977;49.414;11.010;2023-05-29T10:47:01;4.22;;;2.58;;
54460;SDS011;69977;49.414;11.010;2023-05-29T10:49:29;2.80;;;2.60;;
54460;SDS011;69977;49.414;11.010;2023-05-29T10:51:57;3.45;;;2.45;;
54460;SDS011;69977;49.414;11.010;2023-05-29T10:54:25;2.35;;;2.15;;
54460;SDS011;69977;49.414;11.010;2023-05-29T10:56:54;2.35;;;2.15;;
54460;SDS011;69977;49.414;11.010;2023-05-29T10:59:22;2.83;;;2.22;;
54460;SDS011;69977;49.414;11.010;2023-05-29T11:01:52;7.30;;;2.30;;
54460;SDS011;69977;49.414;11.010;2023-05-29T11:06:50;5.20;;;2.40;;
54460;SDS011;69977;49.414;11.010;2023-05-29T11:09:30;2.95;;;2.25;;
54460;SDS011;69977;49.414;11.010;2023-05-29T11:12:10;2.35;;;2.13;;
54460;SDS011;69977;49.414;11.010;2023-05-29T11:20:03;3.90;;;2.30;;
54460;SDS011;69977;49.414;11.010;2023-05-29T11:22:53;3.00;;;2.38;;
54460;SDS011;69977;49.414;11.010;2023-05-29T11:25:27;2.35;;;2.15;;
54460;SDS011;69977;49.414;11.010;2023-05-29T11:27:54;3.30;;;2.08;;
54460;SDS011;69977;49.414;11.010;2023-05-29T11:30:20;2.17;;;2.08;;
54460;SDS011;69977;49.414;11.010;2023-05-29T11:32:46;2.45;;;2.25;;
54460;SDS011;69977;49.414;11.010;2023-05-29T11:35:13;2.60;;;2.20;;
54460;SDS011;69977;49.414;11.010;2023-05-29T11:37:39;7.07;;;2.10;;
54460;SDS011;69977;49.414;11.010;2023-05-29T11:40:11;3.08;;;2.22;;
54460;SDS011;69977;49.414;11.010;2023-05-29T11:42:41;2.55;;;2.00;;
54460;SDS011;69977;49.414;11.010;2023-05-29T11:47:58;4.10;;;2.13;;
54460;SDS011;69977;49.414;11.010;2023-05-29T11:50:24;2.22;;;2.13;;
54460;SDS011;69977;49.414;11.010;2023-05-29T11:52:51;2.17;;;1.90;;
54460;SDS011;69977;49.414;11.010;2023-05-29T11:55:18;2.20;;;1.75;;
54460;SDS011;69977;49.414;11.010;2023-05-29T11:57:46;2.22;;;2.05;;
54460;SDS011;69977;49.414;11.010;2023-05-29T12:00:15;4.22;;;2.28;;
54460;SDS011;69977;49.414;11.010;2023-05-29T12:02:42;5.45;;;2.53;;
54460;SDS011;69977;49.414;11.010;2023-05-29T12:05:09;3.70;;;1.90;;
54460;SDS011;69977;49.414;11.010;2023-05-29T12:07:35;2.83;;;2.00;;
54460;SDS011;69977;49.414;11.010;2023-05-29T12:10:14;3.80;;;1.80;;
54460;SDS011;69977;49.414;11.010;2023-05-29T12:12:42;2.00;;;1.90;;
54460;SDS011;69977;49.414;11.010;2023-05-29T12:15:08;2.40;;;2.20;;
54460;SDS011;69977;49.414;11.010;2023-05-29T12:17:34;6.47;;;2.40;;
54460;SDS011;69977;49.414;11.010;2023-05-29T12:20:01;2.65;;;2.45;;
54460;SDS011;69977;49.414;11.010;2023-05-29T12:22:36;3.20;;;2.90;;
54460;SDS011;69977;49.414;11.010;2023-05-29T12:25:04;2.28;;;1.75;;
54460;SDS011;69977;49.414;11.010;2023-05-29T12:27:31;2.38;;;2.20;;
54460;SDS011;69977;49.414;11.010;2023-05-29T12:30:03;2.35;;;2.05;;
54460;SDS011;69977;49.414;11.010;2023-05-29T12:32:39;2.17;;;1.98;;
54460;SDS011;69977;49.414;11.010;2023-05-29T12:35:25;3.10;;;1.90;;
54460;SDS011;69977;49.414;11.010;2023-05-29T12:38:00;2.45;;;2.28;;
54460;SDS011;69977;49.414;11.010;2023-05-29T12:42:54;1.80;;;1.70;;
54460;SDS011;69977;49.414;11.010;2023-05-29T12:45:23;2.58;;;2.08;;
54460;SDS011;69977;49.414;11.010;2023-05-29T12:48:02;2.83;;;2.20;;
54460;SDS011;69977;49.414;11.010;2023-05-29T12:50:34;2.55;;;2.10;;
54460;SDS011;69977;49.414;11.010;2023-05-29T12:53:03;2.47;;;1.83;;
54460;SDS011;69977;49.414;11.010;2023-05-29T12:55:31;2.65;;;2.45;;
54460;SDS011;69977;49.414;11.010;2023-05-29T12:58:02;3.22;;;2.08;;
54460;SDS011;69977;49.414;11.010;2023-05-29T13:00:28;2.10;;;1.90;;
54460;SDS011;69977;49.414;11.010;2023-05-29T13:02:55;2.85;;;1.90;;
54460;SDS011;69977;49.414;11.010;2023-05-29T13:05:21;3.13;;;1.77;;
54460;SDS011;69977;49.414;11.010;2023-05-29T13:07:51;1.80;;;1.70;;
54460;SDS011;69977;49.414;11.010;2023-05-29T13:10:17;2.53;;;2.22;;
54460;SDS011;69977;49.414;11.010;2023-05-29T13:12:44;1.98;;;1.88;;
54460;SDS011;69977;49.414;11.010;2023-05-29T13:15:11;4.53;;;2.28;;
54460;SDS011;69977;49.414;11.010;2023-05-29T13:17:38;2.97;;;1.60;;
54460;SDS011;69977;49.414;11.010;2023-05-29T13:20:10;5.05;;;2.35;;
54460;SDS011;69977;49.414;11.010;2023-05-29T13:22:37;6.53;;;2.00;;
54460;SDS011;69977;49.414;11.010;2023-05-29T13:25:07;7.13;;;2.45;;
54460;SDS011;69977;49.414;11.010;2023-05-29T13:27:38;4.30;;;1.92;;
54460;SDS011;69977;49.414;11.010;2023-05-29T13:30:06;2.95;;;2.10;;
54460;SDS011;69977;49.414;11.010;2023-05-29T13:32:33;3.47;;;1.98;;
54460;SDS011;69977;49.414;11.010;2023-05-29T13:34:59;3.97;;;2.10;;
54460;SDS011;69977;49.414;11.010;2023-05-29T13:37:25;2.10;;;1.90;;
54460;SDS011;69977;49.414;11.010;2023-05-29T13:39:53;2.15;;;1.95;;
54460;SDS011;69977;49.414;11.010;2023-05-29T13:42:19;2.00;;;1.90;;
54460;SDS011;69977;49.414;11.010;2023-05-29T13:44:46;2.00;;;1.90;;
54460;SDS011;69977;49.414;11.010;2023-05-29T13:47:12;1.90;;;1.80;;
54460;SDS011;69977;49.414;11.010;2023-05-29T13:49:38;2.50;;;2.35;;
54460;SDS011;69977;49.414;11.010;2023-05-29T13:52:04;2.55;;;2.35;;
54460;SDS011;69977;49.414;11.010;2023-05-29T13:54:30;2.38;;;2.17;;
54460;SDS011;69977;49.414;11.010;2023-05-29T13:57:03;2.10;;;1.98;;
54460;SDS011;69977;49.414;11.010;2023-05-29T13:59:31;5.65;;;1.90;;
54460;SDS011;69977;49.414;11.010;2023-05-29T14:02:00;2.85;;;1.90;;
54460;SDS011;69977;49.414;11.010;2023-05-29T14:04:30;4.22;;;1.90;;
54460;SDS011;69977;49.414;11.010;2023-05-29T14:06:57;1.88;;;1.77;;
54460;SDS011;69977;49.414;11.010;2023-05-29T14:09:22;2.63;;;2.28;;
54460;SDS011;69977;49.414;11.010;2023-05-29T14:11:53;3.13;;;2.00;;
54460;SDS011;69977;49.414;11.010;2023-05-29T14:14:20;4.47;;;2.20;;
54460;SDS011;69977;49.414;11.010;2023-05-29T14:16:46;4.25;;;2.05;;
54460;SDS011;69977;49.414;11.010;2023-05-29T14:19:11;9.60;;;2.45;;
54460;SDS011;69977;49.414;11.010;2023-05-29T14:21:37;8.88;;;2.38;;
54460;SDS011;69977;49.414;11.010;2023-05-29T14:24:03;2.83;;;2.05;;
54460;SDS011;69977;49.414;11.010;2023-05-29T14:26:29;2.45;;;1.77;;
54460;SDS011;69977;49.414;11.010;2023-05-29T14:28:55;14.60;;;3.28;;
54460;SDS011;69977;49.414;11.010;2023-05-29T14:31:21;2.40;;;2.20;;
54460;SDS011;69977;49.414;11.010;2023-05-29T14:33:47;1.95;;;1.85;;
54460;SDS011;69977;49.414;11.010;2023-05-29T14:36:12;2.15;;;2.00;;
54460;SDS011;69977;49.414;11.010;2023-05-29T14:38:38;2.25;;;2.05;;
54460;SDS011;69977;49.414;11.010;2023-05-29T14:41:04;2.85;;;2.22;;
54460;SDS011;69977;49.414;11.010;2023-05-29T14:43:31;2.80;;;2.40;;
54460;SDS011;69977;49.414;11.010;2023-05-29T14:45:57;3.78;;;2.33;;
54460;SDS011;69977;49.414;11.010;2023-05-29T14:48:23;3.25;;;2.10;;
54460;SDS011;69977;49.414;11.010;2023-05-29T14:50:49;2.92;;;2.35;;
54460;SDS011;69977;49.414;11.010;2023-05-29T14:53:14;1.80;;;1.70;;
54460;SDS011;69977;49.414;11.010;2023-05-29T14:55:40;2.72;;;1.92;;
54460;SDS011;69977;49.414;11.010;2023-05-29T14:58:06;2.25;;;2.10;;
54460;SDS011;69977;49.414;11.010;2023-05-29T15:00:32;1.90;;;1.80;;
54460;SDS011;69977;49.414;11.010;2023-05-29T15:02:57;2.58;;;2.00;;
54460;SDS011;69977;49.414;11.010;2023-05-29T15:05:27;2.80;;;1.83;;
54460;SDS011;69977;49.414;11.010;2023-05-29T15:07:54;2.53;;;2.00;;
54460;SDS011;69977;49.414;11.010;2023-05-29T15:10:24;6.88;;;2.13;;
54460;SDS011;69977;49.414;11.010;2023-05-29T15:12:51;2.92;;;1.63;;